Time;durP1;ratioP1;P1;durP2;ratioP2;P2;SDS_P1;SDS_P2;PMS_P1;PMS_P2;Temp;Humidity;BMP_temperature;BMP_pressure;BME280_temperature;BME280_humidity;BME280_pressure;Samples;Min_cycle;Max_cycle;Signal;HPM_P1;HPM_P2
2023/01/29 00:00:36;;;;;;;1.52;1.50;;;;;;;2.05;74.18;99933.41;4262107;33;34354;-86
2023/01/29 00:03:05;;;;;;;3.40;1.23;;;;;;;1.98;74.49;99935.75;4262127;33;33902;-88
2023/01/29 00:05:34;;;;;;;1.15;1.15;;;;;;;1.28;77.33;99920.50;4262029;33;35920;-86
2023/01/29 00:08:02;;;;;;;0.60;0.60;;;;;;;1.65;76.55;99926.06;4262174;33;35040;-86
2023/01/29 00:10:30;;;;;;;3.70;3.20;;;;;;;1.67;76.82;99925.28;4262045;33;33601;-82
2023/01/29 00:12:58;;;;;;;1.65;1.35;;;;;;;1.26;78.28;99919.59;4262053;33;34049;-88
2023/01/29 00:15:26;;;;;;;8.50;3.72;;;;;;;1.44;78.12;99927.06;4261966;33;35038;-86
2023/01/29 00:17:55;;;;;;;0.80;0.80;;;;;;;1.45;78.65;99930.53;4262059;33;34554;-77
2023/01/29 00:20:23;;;;;;;1.75;1.52;;;;;;;1.30;79.53;99930.81;4261911;33;34495;-88
2023/01/29 00:22:51;;;;;;;12.70;7.03;;;;;;;0.81;82.21;99940.13;4262016;33;34680;-84
2023/01/29 00:25:19;;;;;;;1.67;1.58;;;;;;;1.39;80.05;99940.53;4261887;33;35132;-79
2023/01/29 00:27:47;;;;;;;4.68;2.75;;;;;;;1.32;79.32;99939.44;4261923;33;34568;-87
2023/01/29 00:30:18;;;;;;;2.15;1.67;;;;;;;1.31;79.04;99937.72;4261960;33;33635;-87
2023/01/29 00:32:47;;;;;;;1.23;1.12;;;;;;;1.38;80.12;99946.47;4249006;33;33413;-88
2023/01/29 00:35:15;;;;;;;1.10;1.08;;;;;;;1.45;79.38;99940.78;4262061;33;35878;-86
2023/01/29 00:37:43;;;;;;;0.70;0.70;;;;;;;1.29;80.02;99954.75;4261916;33;34992;-89
2023/01/29 00:40:12;;;;;;;2.62;1.50;;;;;;;1.35;79.91;99954.09;4258175;33;31912;-76
2023/01/29 00:45:27;;;;;;;2.33;2.12;;;;;;;1.22;80.09;99953.66;4247700;33;35197;-88
2023/01/29 00:47:55;;;;;;;2.12;1.98;;;;;;;0.99;80.47;99954.47;4247574;33;34568;-76
2023/01/29 00:50:23;;;;;;;1.25;1.25;;;;;;;1.82;76.88;99953.19;4248002;33;34002;-86
2023/01/29 00:52:53;;;;;;;2.47;2.35;;;;;;;0.95;79.94;99958.59;4247878;33;34595;-76
2023/01/29 00:55:21;;;;;;;0.80;0.80;;;;;;;1.11;79.97;99955.81;4247287;33;35205;-87
2023/01/29 00:57:50;;;;;;;1.65;1.55;;;;;;;1.32;78.97;99963.44;4247569;33;34769;-88
2023/01/29 01:00:19;;;;;;;0.80;0.80;;;;;;;1.23;78.89;99954.50;4247619;33;33527;-89
2023/01/29 01:03:06;;;;;;;0.80;0.80;;;;;;;1.73;77.35;99952.00;4247590;33;33938;-88
2023/01/29 01:05:35;;;;;;;;;;;;;;;1.57;77.03;99954.03;4247834;33;35024;-77
2023/01/29 01:10:19;;;;;;;1.58;1.48;;;;;;;1.18;78.27;99951.75;4247492;33;35564;-76
2023/01/29 01:10:58;;;;;;;1.42;1.33;;;;;;;1.26;78.89;99945.22;4246649;33;34403;-88
2023/01/29 01:13:27;;;;;;;1.17;1.17;;;;;;;1.18;78.83;99949.19;4246447;33;34679;-87
2023/01/29 01:15:56;;;;;;;1.17;1.17;;;;;;;0.85;80.09;99952.28;4247527;33;36076;-88
2023/01/29 01:18:28;;;;;;;1.52;1.42;;;;;;;1.02;78.88;99949.47;4247470;33;34532;-77
2023/01/29 01:20:57;;;;;;;1.50;1.40;;;;;;;1.55;77.14;99952.22;4247441;33;33456;-86
2023/01/29 01:23:26;;;;;;;0.65;0.65;;;;;;;1.10;78.04;99948.94;4247511;33;34023;-87
2023/01/29 01:25:55;;;;;;;1.98;1.87;;;;;;;1.32;77.39;99955.75;4247704;33;34953;-76
2023/01/29 01:28:23;;;;;;;1.45;1.35;;;;;;;1.38;77.13;99959.31;4247369;33;34588;-87
2023/01/29 01:30:51;;;;;;;10.15;1.48;;;;;;;1.39;76.81;99950.81;4247638;33;33559;-76
2023/01/29 01:33:20;;;;;;;9.18;2.35;;;;;;;1.27;77.30;99956.37;4247282;33;34732;-89
2023/01/29 01:35:49;;;;;;;2.12;1.62;;;;;;;1.12;77.80;99959.25;4247365;33;35063;-88
2023/01/29 01:38:17;;;;;;;1.20;1.17;;;;;;;1.41;76.93;99959.44;4247589;33;34478;-88
2023/01/29 01:40:45;;;;;;;1.62;1.55;;;;;;;1.35;76.87;99959.22;4261526;33;34110;-76
2023/01/29 01:43:14;;;;;;;5.37;3.83;;;;;;;1.08;78.54;99965.09;4249017;33;33921;-79
2023/01/29 01:45:45;;;;;;;1.52;1.45;;;;;;;0.92;79.27;99969.63;4261314;33;35932;-76
2023/01/29 01:48:17;;;;;;;0.88;0.88;;;;;;;0.87;79.37;99975.41;4261416;33;34436;-81
2023/01/29 01:50:59;;;;;;;4.22;2.83;;;;;;;1.06;79.05;99974.41;4248908;33;33495;-77
2023/01/29 01:54:07;;;;;;;1.30;1.30;;;;;;;0.90;78.44;99976.41;4260573;33;34673;-88
2023/01/29 01:56:39;;;;;;;0.88;0.88;;;;;;;1.30;76.77;99971.88;4248590;33;34983;-76
2023/01/29 01:59:16;;;;;;;1.02;1.02;;;;;;;1.48;76.24;99976.78;4248712;33;35340;-87
2023/01/29 02:01:50;;;;;;;1.48;1.37;;;;;;;1.38;75.33;99969.56;4260153;33;33778;-85
2023/01/29 02:10:10;;;;;;;1.48;1.37;;;;;;;1.40;75.04;99973.09;4261845;33;34283;-88
2023/01/29 02:12:39;;;;;;;0.80;0.80;;;;;;;1.40;74.20;99979.09;4250175;33;33580;-88
2023/01/29 02:15:08;;;;;;;0.98;0.98;;;;;;;1.65;73.41;99983.41;4249939;33;34115;-84
2023/01/29 02:17:37;;;;;;;1.05;1.05;;;;;;;1.59;73.42;99980.63;4262717;33;36137;-88
2023/01/29 02:20:19;;;;;;;1.50;1.40;;;;;;;1.30;74.22;99988.13;4262811;33;34797;-88
2023/01/29 02:22:54;;;;;;;0.80;0.80;;;;;;;0.92;75.47;99985.03;4250173;33;34273;-88
2023/01/29 02:25:52;;;;;;;1.15;1.15;;;;;;;1.26;75.04;99981.16;4262670;33;33875;-88
2023/01/29 02:28:24;;;;;;;1.67;1.58;;;;;;;1.05;74.88;99988.06;4262582;33;35137;-77
2023/01/29 02:31:14;;;;;;;1.10;1.10;;;;;;;0.96;75.83;99987.72;4250098;33;34390;-77
2023/01/29 02:33:58;;;;;;;0.88;0.88;;;;;;;1.11;75.07;99990.84;4249937;33;34355;-76
2023/01/29 02:36:30;;;;;;;1.25;1.15;;;;;;;0.97;74.69;99989.44;4262653;33;34822;-88
2023/01/29 02:39:20;;;;;;;1.37;1.27;;;;;;;1.02;74.17;99996.50;4262419;33;35037;-88
2023/01/29 02:42:15;;;;;;;0.70;0.70;;;;;;;0.99;74.84;99990.38;4262723;33;34589;-87
2023/01/29 02:44:52;;;;;;;0.70;0.70;;;;;;;0.98;74.94;99994.63;4250095;33;34224;-76
2023/01/29 02:47:54;;;;;;;2.47;2.17;;;;;;;0.31;77.66;99997.97;4262895;33;33925;-88
2023/01/29 02:50:33;;;;;;;2.30;2.15;;;;;;;0.64;76.73;100002.72;4262595;33;36037;-79
2023/01/29 02:53:08;;;;;;;1.42;1.33;;;;;;;1.00;75.37;100000.69;4249821;33;34462;-89
2023/01/29 02:55:44;;;;;;;1.20;1.20;;;;;;;0.46;77.14;100008.84;4250042;33;33713;-87
2023/01/29 02:58:20;;;;;;;1.85;1.37;;;;;;;0.48;77.91;100007.22;4250165;33;33509;-79
2023/01/29 03:00:48;;;;;;;1.20;1.13;;;;;;;0.99;76.24;100004.09;4261631;33;35026;-88
2023/01/29 03:03:25;;;;;;;0.75;0.75;;;;;;;0.91;76.86;100005.47;4261255;33;34424;-88
2023/01/29 03:06:17;;;;;;;1.83;1.73;;;;;;;0.94;77.11;100014.16;4249751;33;33446;-77
2023/01/29 03:08:54;;;;;;;0.80;0.80;;;;;;;0.55;78.10;100010.91;4262451;33;34083;-86
2023/01/29 03:11:22;;;;;;;;;;;;;;;0.61;78.13;100010.28;4261582;33;36016;-86
2023/01/29 03:18:00;;;;;;;4.72;3.92;;;;;;;0.61;78.11;100007.72;4190601;34;33336;-88
2023/01/29 03:20:33;;;;;;;15.32;4.22;;;;;;;0.63;78.89;100011.19;4255088;33;34593;-88
2023/01/29 03:23:09;;;;;;;1.12;1.08;;;;;;;0.42;80.39;100022.31;4249643;33;35967;-87
2023/01/29 03:34:22;;;;;;;3.85;3.53;;;;;;;0.76;78.77;100023.69;4261370;33;35766;-75
2023/01/29 03:36:56;;;;;;;1.42;1.33;;;;;;;0.93;77.99;100029.47;4250294;33;35001;-88
2023/01/29 03:39:27;;;;;;;0.70;0.70;;;;;;;1.07;77.77;100030.00;4258806;33;33479;-76
2023/01/29 03:42:21;;;;;;;0.70;0.70;;;;;;;1.02;77.95;100028.97;4247211;33;33867;-89
2023/01/29 03:44:59;;;;;;;1.40;1.27;;;;;;;1.03;78.35;100028.16;4248094;33;35033;-81
2023/01/29 03:47:35;;;;;;;2.22;2.12;;;;;;;0.64;80.33;100043.72;4248284;33;34701;-85
2023/01/29 03:50:16;;;;;;;0.98;0.98;;;;;;;1.04;79.27;100029.88;4248291;33;34293;-86
2023/01/29 03:52:55;;;;;;;0.90;0.90;;;;;;;1.53;75.51;100031.72;4245972;33;34773;-75
2023/01/29 03:55:41;;;;;;;1.12;1.12;;;;;;;1.32;76.54;100032.72;4246527;33;35807;-82
2023/01/29 03:58:35;;;;;;;0.80;0.80;;;;;;;1.12;76.71;100036.19;4246867;33;34494;-79
2023/01/29 04:01:11;;;;;;;0.70;0.70;;;;;;;0.82;78.24;100034.19;4247601;33;33525;-77
2023/01/29 04:04:02;;;;;;;4.78;2.47;;;;;;;1.02;77.21;100036.66;4246722;33;34641;-78
2023/01/29 04:06:33;;;;;;;0.70;0.70;;;;;;;1.44;75.56;100027.13;4247939;33;34964;-81
2023/01/29 04:09:03;;;;;;;1.35;1.35;;;;;;;1.01;77.53;100032.34;4246941;33;34385;-77
2023/01/29 04:11:33;;;;;;;2.08;1.98;;;;;;;1.17;77.35;100029.56;4247860;33;33267;-86
2023/01/29 04:14:01;;;;;;;1.12;1.00;;;;;;;1.23;76.95;100027.22;4246630;33;33825;-87
2023/01/29 04:16:35;;;;;;;0.62;0.62;;;;;;;0.84;79.03;100029.97;4247660;33;34384;-83
2023/01/29 04:19:05;;;;;;;2.20;2.05;;;;;;;0.84;78.06;100034.25;4246869;33;35247;-78
2023/01/29 04:21:36;;;;;;;1.65;1.55;;;;;;;1.24;77.03;100038.38;4246663;33;34071;-85
2023/01/29 04:24:06;;;;;;;0.60;0.60;;;;;;;1.68;74.76;100031.44;4247999;33;33971;-79
2023/01/29 04:26:45;;;;;;;1.30;1.30;;;;;;;1.40;74.83;100029.56;4246504;33;35183;-78
2023/01/29 04:29:25;;;;;;;3.25;3.05;;;;;;;1.21;76.05;100033.97;4246945;33;35070;-81
2023/01/29 04:32:12;;;;;;;0.90;0.90;;;;;;;1.21;76.19;100021.16;4247195;33;34265;-87
2023/01/29 04:34:50;;;;;;;1.75;1.65;;;;;;;1.07;76.52;100022.31;4247901;33;34865;-80
2023/01/29 04:37:58;;;;;;;0.88;0.88;;;;;;;1.13;75.14;100026.00;4246154;33;35055;-84
2023/01/29 04:40:37;;;;;;;0.70;0.70;;;;;;;1.49;75.11;100025.62;4260256;33;35247;-84
2023/01/29 04:43:13;;;;;;;1.23;1.23;;;;;;;1.42;74.70;100023.66;4261386;33;33771;-77
2023/01/29 04:46:08;;;;;;;2.05;2.00;;;;;;;1.38;74.39;100033.72;4237452;33;33328;-86
2023/01/29 04:48:43;;;;;;;7.22;5.85;;;;;;;1.19;75.11;100040.75;4247474;33;35079;-78
2023/01/29 04:51:37;;;;;;;6.22;2.87;;;;;;;0.96;76.42;100036.44;4247415;33;34424;-84
2023/01/29 04:54:15;;;;;;;0.88;0.88;;;;;;;0.94;76.60;100034.66;4246506;33;33643;-81
2023/01/29 04:56:51;;;;;;;0.98;0.98;;;;;;;0.64;78.10;100039.47;4246354;33;34820;-85
2023/01/29 04:59:29;;;;;;;0.70;0.70;;;;;;;1.13;76.12;100036.25;4234795;33;35194;-82
2023/01/29 05:01:58;;;;;;;1.10;1.10;;;;;;;1.02;76.47;100031.53;4238458;33;35188;-80
2023/01/29 05:04:31;;;;;;;1.37;1.35;;;;;;;0.97;76.53;100033.03;4248823;33;33071;-81
2023/01/29 05:07:03;;;;;;;1.00;1.00;;;;;;;1.13;77.28;100035.41;4249411;33;33916;-79
2023/01/29 05:09:33;;;;;;;0.82;0.82;;;;;;;1.16;76.10;100030.34;4261575;33;35796;-85
2023/01/29 05:12:01;;;;;;;0.80;0.80;;;;;;;1.25;76.33;100037.53;4261396;33;34537;-87
2023/01/29 05:14:32;;;;;;;0.75;0.75;;;;;;;1.55;75.56;100030.09;4248797;33;33565;-85
2023/01/29 05:17:09;;;;;;;1.15;1.15;;;;;;;0.98;77.94;100035.66;4261228;33;33840;-85
2023/01/29 05:19:37;;;;;;;0.70;0.70;;;;;;;1.31;76.53;100045.47;4248801;33;36049;-85
2023/01/29 05:22:08;;;;;;;8.18;5.97;;;;;;;1.44;75.83;100036.53;4261296;33;34563;-83
2023/01/29 05:24:37;;;;;;;1.27;1.27;;;;;;;1.21;76.66;100043.38;4249102;33;33338;-82
2023/01/29 05:29:54;;;;;;;0.80;0.80;;;;;;;1.39;77.09;100032.91;4250684;33;35083;-85
2023/01/29 05:32:22;;;;;;;1.55;1.45;;;;;;;1.20;76.78;100042.50;4261252;33;35182;-77
2023/01/29 05:34:50;;;;;;;0.70;0.70;;;;;;;1.43;75.88;100032.22;4261442;33;33792;-85
2023/01/29 05:37:18;;;;;;;1.08;1.08;;;;;;;1.27;77.12;100039.34;4261315;33;34216;-86
2023/01/29 05:39:47;;;;;;;0.70;0.70;;;;;;;1.31;77.41;100041.22;4261126;33;35130;-83
2023/01/29 05:42:15;;;;;;;4.75;4.22;;;;;;;1.55;75.65;100045.50;4259862;33;35153;-84
2023/01/29 05:44:43;;;;;;;1.15;1.15;;;;;;;1.11;78.01;100045.59;4261306;33;33579;-84
2023/01/29 05:47:12;;;;;;;2.28;2.15;;;;;;;1.44;77.02;100034.84;4261084;33;33920;-84
2023/01/29 05:49:40;;;;;;;0.90;0.90;;;;;;;1.59;76.36;100042.25;4261213;33;34917;-85
2023/01/29 05:52:08;;;;;;;0.60;0.60;;;;;;;1.59;75.67;100031.97;4261030;33;34507;-84
2023/01/29 05:54:36;;;;;;;1.40;1.35;;;;;;;1.57;76.43;100038.75;4261013;33;33461;-84
2023/01/29 05:57:04;;;;;;;0.60;0.60;;;;;;;1.43;76.48;100037.34;4261135;33;33939;-83
2023/01/29 05:59:32;;;;;;;1.17;1.17;;;;;;;1.72;75.67;100042.69;4261155;33;35201;-85
2023/01/29 06:02:01;;;;;;;0.93;0.93;;;;;;;1.24;77.20;100051.19;4260860;33;34548;-84
2023/01/29 06:04:30;;;;;;;1.92;1.83;;;;;;;1.89;75.54;100051.88;4261213;33;34320;-84
2023/01/29 06:06:58;;;;;;;1.98;1.87;;;;;;;1.99;74.50;100048.78;4260901;33;34778;-77
2023/01/29 06:09:26;;;;;;;0.85;0.85;;;;;;;1.61;76.31;100053.44;4261134;33;35916;-83
2023/01/29 06:11:54;;;;;;;0.95;0.93;;;;;;;1.37;77.11;100060.22;4260822;33;34704;-81
2023/01/29 06:14:22;;;;;;;2.55;2.35;;;;;;;1.49;76.21;100065.81;4261173;33;33321;-84
2023/01/29 06:16:51;;;;;;;0.90;0.90;;;;;;;1.21;77.52;100064.75;4260767;33;33810;-85
2023/01/29 06:19:19;;;;;;;0.62;0.62;;;;;;;0.96;78.19;100062.06;4260722;33;34590;-85
2023/01/29 06:21:47;;;;;;;0.88;0.88;;;;;;;1.20;78.05;100063.03;4260590;33;34085;-83
2023/01/29 06:24:15;;;;;;;0.82;0.82;;;;;;;1.04;78.89;100068.34;4260739;33;33646;-80
2023/01/29 06:26:44;;;;;;;1.12;1.12;;;;;;;1.09;77.96;100064.28;4260688;33;34040;-78
2023/01/29 06:29:13;;;;;;;2.37;2.20;;;;;;;1.41;76.57;100072.34;4260779;33;35060;-81
2023/01/29 06:31:43;;;;;;;3.08;2.12;;;;;;;1.09;77.66;100074.53;4260571;33;34193;-85
2023/01/29 06:34:12;;;;;;;1.25;1.17;;;;;;;0.48;80.71;100081.53;4260692;33;32441;-79
2023/01/29 06:36:41;;;;;;;0.95;0.95;;;;;;;0.80;79.66;100092.22;4260655;33;33993;-80
2023/01/29 06:39:11;;;;;;;0.60;0.60;;;;;;;1.04;78.64;100099.13;4260435;33;35179;-78
2023/01/29 06:41:40;;;;;;;0.60;0.60;;;;;;;1.08;78.26;100098.47;4260563;33;34113;-86
2023/01/29 06:44:08;;;;;;;3.28;3.08;;;;;;;0.85;78.99;100095.84;4260411;33;34379;-78
2023/01/29 06:46:36;;;;;;;1.90;1.83;;;;;;;0.91;78.38;100101.19;4260327;33;34072;-79
2023/01/29 06:49:05;;;;;;;2.45;2.25;;;;;;;0.62;80.37;100102.59;4260268;33;35915;-80
2023/01/29 06:51:33;;;;;;;1.08;1.00;;;;;;;0.81;79.09;100104.19;4260310;33;34539;-85
2023/01/29 06:54:01;;;;;;;0.90;0.90;;;;;;;0.31;81.08;100105.56;4261433;33;33366;-81
2023/01/29 06:56:30;;;;;;;3.70;2.90;;;;;;;0.90;79.15;100108.84;4262217;33;33930;-82
2023/01/29 06:58:58;;;;;;;0.60;0.60;;;;;;;0.70;79.45;100110.59;4262464;33;35028;-83
2023/01/29 07:01:27;;;;;;;0.80;0.80;;;;;;;0.74;78.38;100108.22;4262088;33;34138;-84
2023/01/29 07:04:03;;;;;;;;;;;;;;;0.46;80.29;100111.34;4262621;33;34220;-83
2023/01/29 07:06:32;;;;;;;0.70;0.70;;;;;;;0.77;78.82;100106.59;4262304;33;34608;-73
2023/01/29 07:09:00;;;;;;;0.70;0.70;;;;;;;0.94;78.11;100105.59;4249391;33;35084;-81
2023/01/29 07:11:29;;;;;;;0.65;0.65;;;;;;;0.60;78.70;100099.09;4262029;33;34267;-82
2023/01/29 07:13:57;;;;;;;1.17;1.17;;;;;;;0.62;79.74;100107.72;4262467;33;33839;-81
2023/01/29 07:16:25;;;;;;;0.82;0.82;;;;;;;0.54;80.12;100106.50;4262155;33;34128;-83
2023/01/29 07:18:54;;;;;;;2.20;2.08;;;;;;;0.65;79.65;100106.97;4262218;33;35215;-80
2023/01/29 07:21:22;;;;;;;0.75;0.75;;;;;;;1.10;78.12;100107.09;4262051;33;34236;-83
2023/01/29 07:23:51;;;;;;;1.55;1.50;;;;;;;1.10;76.65;100107.94;4262263;33;33298;-85
2023/01/29 07:26:19;;;;;;;0.85;0.82;;;;;;;0.61;77.23;100105.09;4262129;33;34026;-83
2023/01/29 07:28:47;;;;;;;0.62;0.62;;;;;;;0.96;77.11;100101.41;4262076;33;35065;-71
2023/01/29 07:31:16;;;;;;;1.10;1.10;;;;;;;1.06;74.64;100100.06;4262180;33;34358;-79
2023/01/29 07:33:45;;;;;;;0.68;0.68;;;;;;;0.87;76.25;100099.34;4249989;33;33878;-73
2023/01/29 07:36:13;;;;;;;1.00;1.00;;;;;;;0.89;76.98;100100.28;4262053;33;34707;-78
2023/01/29 07:38:41;;;;;;;0.80;0.80;;;;;;;0.57;78.59;100083.59;4260987;33;33965;-80
2023/01/29 07:41:10;;;;;;;0.85;0.85;;;;;;;0.88;76.84;100079.69;4260957;33;35266;-85
2023/01/29 07:43:38;;;;;;;1.15;1.05;;;;;;;0.75;76.83;100068.09;4249594;33;33660;-80
2023/01/29 07:46:07;;;;;;;1.05;1.00;;;;;;;0.62;76.97;100073.50;4249457;33;34067;-73
2023/01/29 07:48:36;;;;;;;1.05;1.05;;;;;;;0.75;77.56;100071.50;4238132;33;34132;-72
2023/01/29 07:51:05;;;;;;;0.90;0.90;;;;;;;0.66;77.97;100073.72;4262159;33;35271;-73
2023/01/29 07:53:33;;;;;;;0.70;0.70;;;;;;;0.94;75.61;100070.56;4238153;33;31833;-81
2023/01/29 07:56:02;;;;;;;1.55;1.45;;;;;;;0.87;77.10;100077.97;4262320;33;33516;-84
2023/01/29 07:58:30;;;;;;;0.70;0.70;;;;;;;1.24;74.81;100075.16;4262460;33;34605;-72
2023/01/29 08:01:04;;;;;;;0.95;0.95;;;;;;;0.90;75.68;100081.53;4249408;33;34564;-72
2023/01/29 08:03:33;;;;;;;0.80;0.80;;;;;;;1.18;74.87;100085.16;4261153;33;32837;-71
2023/01/29 08:06:05;;;;;;;0.60;0.60;;;;;;;1.43;73.30;100088.66;4261759;33;33952;-74
2023/01/29 08:08:33;;;;;;;1.80;1.70;;;;;;;1.04;75.00;100082.06;4260977;33;35020;-74
2023/01/29 08:11:04;;;;;;;1.02;0.80;;;;;;;1.19;73.16;100071.53;4261995;33;35309;-75
2023/01/29 08:13:32;;;;;;;0.68;0.68;;;;;;;1.22;73.93;100076.78;4249564;33;33488;-84
2023/01/29 08:16:02;;;;;;;0.60;0.60;;;;;;;0.88;75.84;100078.03;4237790;33;32622;-72
2023/01/29 08:18:30;;;;;;;2.35;1.20;;;;;;;1.05;74.30;100078.69;4249572;33;35581;-81
2023/01/29 08:21:00;;;;;;;0.60;0.60;;;;;;;1.21;73.82;100079.28;4262114;33;34394;-76
2023/01/29 08:23:28;;;;;;;0.70;0.70;;;;;;;1.00;76.06;100079.31;4249243;33;33364;-73
2023/01/29 08:25:57;;;;;;;1.00;1.00;;;;;;;1.02;74.36;100078.56;4237797;33;33781;-74
2023/01/29 08:28:25;;;;;;;1.30;1.30;;;;;;;1.06;74.87;100077.87;4262054;33;35122;-73
2023/01/29 08:30:54;;;;;;;1.67;1.58;;;;;;;1.26;72.50;100082.91;4262133;33;35129;-79
2023/01/29 08:33:22;;;;;;;0.80;0.80;;;;;;;1.46;72.54;100081.09;4260649;33;33495;-72
2023/01/29 08:36:07;;;;;;;0.62;0.62;;;;;;;1.29;72.36;100089.03;4262056;33;33921;-70
2023/01/29 08:38:35;;;;;;;1.27;1.27;;;;;;;1.27;72.45;100097.47;4261655;33;34063;-73
2023/01/29 08:41:04;;;;;;;1.98;1.87;;;;;;;1.01;73.40;100096.47;4261760;33;34572;-78
2023/01/29 08:43:35;;;;;;;1.15;1.02;;;;;;;0.99;74.08;100095.50;4261487;33;33577;-84
2023/01/29 08:46:04;;;;;;;0.60;0.60;;;;;;;1.14;72.76;100098.69;4261808;33;34233;-79
2023/01/29 08:48:37;;;;;;;0.70;0.70;;;;;;;1.11;72.88;100103.69;4261850;33;35260;-80
2023/01/29 08:51:06;;;;;;;0.70;0.70;;;;;;;0.93;72.25;100104.69;4261493;33;34477;-82
2023/01/29 08:53:35;;;;;;;0.70;0.70;;;;;;;1.18;72.01;100095.41;4261635;33;34467;-80
2023/01/29 08:56:04;;;;;;;0.70;0.70;;;;;;;0.93;72.55;100114.97;4261734;33;33819;-82
2023/01/29 08:58:32;;;;;;;1.02;1.02;;;;;;;1.03;72.78;100116.22;4261363;33;36027;-83
2023/01/29 09:01:12;;;;;;;0.80;0.80;;;;;;;1.00;72.13;100121.22;4261504;33;35271;-81
2023/01/29 09:03:43;;;;;;;0.70;0.70;;;;;;;0.95;71.77;100122.72;4261506;33;33589;-82
2023/01/29 09:06:13;;;;;;;1.05;1.00;;;;;;;1.09;70.96;100125.84;4260440;33;32638;-83
2023/01/29 09:08:45;;;;;;;0.70;0.70;;;;;;;0.90;71.77;100124.22;4261446;33;35804;-78
2023/01/29 09:11:16;;;;;;;1.27;1.17;;;;;;;0.79;72.62;100136.59;4261349;33;35322;-80
2023/01/29 09:13:45;;;;;;;1.10;1.10;;;;;;;1.08;71.88;100134.38;4261567;33;34232;-78
2023/01/29 09:16:14;;;;;;;0.70;0.70;;;;;;;1.05;71.74;100139.38;4248651;33;33908;-82
2023/01/29 09:18:43;;;;;;;0.98;0.98;;;;;;;1.05;72.20;100144.50;4261403;33;35224;-82
2023/01/29 09:21:11;;;;;;;0.80;0.80;;;;;;;1.03;72.21;100133.31;4261357;33;35199;-80
2023/01/29 09:23:39;;;;;;;0.90;0.90;;;;;;;0.80;72.21;100143.50;4261228;33;33540;-81
2023/01/29 09:26:08;;;;;;;0.75;0.75;;;;;;;1.09;72.58;100146.34;4261494;33;33896;-83
2023/01/29 09:28:36;;;;;;;0.60;0.60;;;;;;;1.01;72.05;100155.44;4261203;33;35110;-82
2023/01/29 09:31:06;;;;;;;0.77;0.77;;;;;;;1.21;70.94;100139.16;4261237;33;35275;-73
2023/01/29 09:33:34;;;;;;;1.05;1.05;;;;;;;1.23;69.98;100134.94;4261633;33;33528;-73
2023/01/29 09:36:03;;;;;;;1.27;1.27;;;;;;;1.06;71.18;100142.00;4261524;33;34912;-86
2023/01/29 09:38:32;;;;;;;0.60;0.60;;;;;;;1.17;70.79;100160.38;4261580;33;35911;-78
2023/01/29 09:41:25;;;;;;;0.80;0.80;;;;;;;1.20;70.45;100155.37;4262386;33;34470;-80
2023/01/29 09:44:03;;;;;;;1.77;1.67;;;;;;;1.37;69.50;100160.28;4262371;33;34589;-77
2023/01/29 09:46:38;;;;;;;1.00;1.00;;;;;;;1.11;70.19;100160.13;4250182;33;34572;-82
2023/01/29 09:49:13;;;;;;;3.00;2.60;;;;;;;1.11;70.15;100154.97;4249758;33;35024;-74
2023/01/29 09:51:45;;;;;;;1.65;1.12;;;;;;;1.21;69.72;100157.09;4261344;33;35110;-73
2023/01/29 09:54:28;;;;;;;0.70;0.70;;;;;;;1.17;69.86;100155.25;4260805;33;33313;-80
2023/01/29 09:56:57;;;;;;;0.80;0.80;;;;;;;0.90;70.05;100162.69;4249328;33;34714;-77
2023/01/29 09:59:27;;;;;;;1.70;1.60;;;;;;;1.21;69.80;100167.38;4261979;33;34701;-83
2023/01/29 10:01:59;;;;;;;0.70;0.70;;;;;;;1.12;69.06;100167.00;4237951;33;33760;-73
2023/01/29 10:04:44;;;;;;;0.70;0.70;;;;;;;1.05;69.19;100170.13;4249787;33;33194;-80
2023/01/29 10:07:24;;;;;;;0.70;0.70;;;;;;;0.82;70.71;100171.75;4249672;33;33882;-85
2023/01/29 10:10:34;;;;;;;1.42;1.33;;;;;;;0.98;68.70;100170.69;4262518;33;34914;-94
2023/01/29 10:13:06;;;;;;;1.23;1.23;;;;;;;0.70;70.79;100169.53;4234372;33;34534;-88
2023/01/29 10:15:45;;;;;;;0.60;0.60;;;;;;;1.08;68.39;100170.28;4250055;33;33318;-74
2023/01/29 10:18:37;;;;;;;0.70;0.70;;;;;;;0.84;69.06;100170.13;4249407;33;34411;-86
2023/01/29 10:21:26;;;;;;;0.98;0.98;;;;;;;1.00;68.51;100169.06;4262305;33;34988;-83
2023/01/29 10:24:26;;;;;;;1.85;1.30;;;;;;;0.89;69.21;100169.50;4262824;33;34491;-83
2023/01/29 10:26:55;;;;;;;7.45;6.72;;;;;;;0.74;69.23;100173.97;4261506;33;31979;-74
2023/01/29 10:29:24;;;;;;;0.75;0.75;;;;;;;1.05;68.50;100165.00;4262270;33;33886;-82
2023/01/29 10:32:03;;;;;;;0.80;0.80;;;;;;;0.71;68.93;100161.06;4239405;33;35203;-83
2023/01/29 10:34:59;;;;;;;0.98;0.98;;;;;;;1.12;67.27;100159.31;4262715;33;34061;-74
2023/01/29 10:37:40;;;;;;;3.87;2.65;;;;;;;1.07;66.77;100168.50;4262681;33;32190;-83
2023/01/29 10:40:11;;;;;;;0.70;0.70;;;;;;;1.13;67.19;100163.66;4262629;33;33894;-80
2023/01/29 10:42:55;;;;;;;1.23;1.10;;;;;;;0.99;66.72;100162.19;4262522;33;34996;-81
2023/01/29 10:45:31;;;;;;;1.92;1.83;;;;;;;0.98;67.04;100161.31;4262347;33;32972;-85
2023/01/29 10:48:19;;;;;;;0.70;0.70;;;;;;;1.01;67.46;100156.31;4262717;33;34099;-83
2023/01/29 10:51:25;;;;;;;0.70;0.70;;;;;;;0.66;68.32;100148.03;4250186;33;34580;-82
2023/01/29 10:54:16;;;;;;;0.70;0.70;;;;;;;1.04;67.65;100147.84;4263040;33;35167;-84
2023/01/29 10:56:50;;;;;;;1.77;1.67;;;;;;;0.68;69.73;100143.84;4251395;33;34454;-77
2023/01/29 10:59:38;;;;;;;2.42;1.35;;;;;;;0.96;68.97;100144.12;4264034;33;32983;-85
2023/01/29 11:02:16;;;;;;;0.60;0.60;;;;;;;1.44;67.04;100134.06;4250714;33;33955;-73
2023/01/29 11:04:45;;;;;;;0.95;0.95;;;;;;;1.24;68.32;100126.44;4262112;33;33673;-74
2023/01/29 11:07:17;;;;;;;0.60;0.60;;;;;;;1.11;68.18;100119.97;4262924;33;35318;-83
2023/01/29 11:10:07;;;;;;;0.95;0.95;;;;;;;1.06;67.98;100121.47;4250591;33;33445;-74
2023/01/29 11:12:37;;;;;;;0.90;0.90;;;;;;;1.11;68.03;100121.63;4250580;33;32858;-77
2023/01/29 11:15:17;;;;;;;0.55;0.55;;;;;;;1.14;67.44;100119.19;4263529;33;34387;-85
2023/01/29 11:18:14;;;;;;;0.75;0.75;;;;;;;1.57;66.10;100115.75;4264506;33;33837;-75
2023/01/29 11:20:43;;;;;;;0.93;0.93;;;;;;;0.89;69.13;100112.22;4262310;33;34271;-75
2023/01/29 11:23:26;;;;;;;0.77;0.77;;;;;;;1.40;67.12;100103.97;4249834;33;33727;-77
2023/01/29 11:25:56;;;;;;;0.90;0.90;;;;;;;1.15;66.92;100095.31;4261285;33;33629;-72
2023/01/29 11:28:39;;;;;;;1.65;1.55;;;;;;;1.54;66.78;100089.97;4249913;33;34418;-73
2023/01/29 11:31:34;;;;;;;0.95;0.95;;;;;;;1.59;65.80;100084.97;4261323;33;34585;-73
2023/01/29 11:34:12;;;;;;;0.60;0.60;;;;;;;1.88;63.31;100086.94;4262915;33;34098;-82
2023/01/29 11:36:40;;;;;;;0.60;0.60;;;;;;;1.69;64.11;100076.81;4251178;33;33601;-71
2023/01/29 11:39:20;;;;;;;0.60;0.60;;;;;;;2.01;63.41;100078.00;4262206;33;34562;-80
2023/01/29 11:41:51;;;;;;;0.75;0.75;;;;;;;2.38;61.49;100074.13;4261120;33;33466;-84
2023/01/29 11:44:25;;;;;;;0.93;0.90;;;;;;;2.88;57.88;100070.56;4262813;33;34562;-87
2023/01/29 11:46:55;;;;;;;1.50;1.40;;;;;;;2.98;59.26;100064.91;4261505;33;35211;-76
2023/01/29 11:49:33;;;;;;;0.60;0.60;;;;;;;2.94;60.70;100070.78;4261595;33;34762;-73
2023/01/29 11:52:05;;;;;;;0.52;0.52;;;;;;;3.94;55.84;100060.87;4262883;33;33574;-76
2023/01/29 11:54:37;;;;;;;0.75;0.75;;;;;;;4.90;54.12;100051.28;4261622;33;33774;-73
2023/01/29 11:57:34;;;;;;;0.77;0.77;;;;;;;6.34;50.54;100044.81;4249922;33;34868;-73
2023/01/29 12:00:19;;;;;;;1.40;1.30;;;;;;;6.71;48.16;100045.44;4261515;33;34465;-74
2023/01/29 12:03:11;;;;;;;1.12;1.12;;;;;;;7.95;44.59;100044.53;4249829;33;33583;-73
2023/01/29 12:05:52;;;;;;;1.30;1.25;;;;;;;8.08;44.26;100039.47;4232795;33;32519;-78
2023/01/29 12:08:22;;;;;;;1.27;0.65;;;;;;;8.33;42.70;100040.63;4249467;33;33457;-74
2023/01/29 12:10:50;;;;;;;0.98;0.80;;;;;;;8.16;41.75;100038.69;4261216;33;34645;-74
2023/01/29 12:13:28;;;;;;;1.12;1.12;;;;;;;6.55;44.04;100039.12;4262133;33;33900;-72
2023/01/29 12:16:37;;;;;;;1.20;1.10;;;;;;;5.24;47.07;100039.12;4249636;33;33955;-72
2023/01/29 12:19:13;;;;;;;0.70;0.70;;;;;;;4.02;50.57;100037.88;4262135;33;35178;-72
2023/01/29 12:21:44;;;;;;;;;;;;;;;2.43;55.51;100040.84;4249890;33;34568;-73
2023/01/29 12:24:47;;;;;;;0.50;0.50;;;;;;;3.60;54.26;100037.63;4249842;33;33041;-74
2023/01/29 12:28:04;;;;;;;1.27;1.17;;;;;;;4.42;51.63;100033.78;4262653;33;33873;-73
2023/01/29 12:30:54;;;;;;;0.50;0.50;;;;;;;5.16;49.46;100020.03;4251899;33;35043;-76
2023/01/29 12:33:52;;;;;;;0.60;0.60;;;;;;;4.70;50.76;100025.00;4261359;33;34491;-83